KLWV/LWV METAR and TAF weather

Enter ICAO airport designator
Station Type Date Time Source
KLWV METAR 2019/02/20 23:53 UTC NOAA

KLWV 202353Z AUTO 28011G18KT 10SM OVC019 07/03 A2990 RMK AO2 SLP125 60008 T00670033 10078 20067 $


Station Type Date Time Source
KLWV Decoded METAR 2019/02/20 23:53 UTC NOAA

LAWRENCEVILLE-VINCENNES INTERNATIONAL , IL, United States (KLWV) 38-46N 87-36W 131M
Feb 20, 2019 - 06:53 PM EST / 2019.02.20 2353 UTC
Wind: from the W (280 degrees) at 13 MPH (11 KT) gusting to 21 MPH (18 KT):0
Visibility: 10 mile(s):0
Sky conditions: overcast
Temperature: 44.1 F (6.7 C)
Dew Point: 37.9 F (3.3 C)
Relative Humidity: 78%
Pressure (altimeter): 29.9 in. Hg (1012 hPa)
ob: KLWV 202353Z AUTO 28011G18KT 10SM OVC019 07/03 A2990 RMK AO2 SLP125 60008 T00670033 10078 20067
cycle: 0

Station Type Date Time Source
KLWV TAF UTC NOAA

Error!


Example: see airport list